createdAt,value
2023-12-04T00:02:14.357Z,96.9
2023-12-04T00:22:14.322Z,94.3
2023-12-04T00:42:14.308Z,91.6
2023-12-04T01:02:14.286Z,90
2023-12-04T01:22:14.258Z,87.6
2023-12-04T01:42:14.241Z,87.7
2023-12-04T03:22:14.253Z,98.1
2023-12-04T04:22:14.090Z,98.3
2023-12-04T05:22:14.089Z,74.7
2023-12-04T06:02:14.085Z,72.9
2023-12-04T06:42:13.994Z,78.4
2023-12-04T07:42:13.876Z,80.4
2023-12-04T08:22:13.816Z,62.6
2023-12-04T08:42:17.782Z,61
2023-12-04T09:02:14.964Z,59.9
2023-12-04T09:22:17.571Z,55.9
2023-12-04T09:42:13.746Z,56.3
2023-12-04T10:02:14.043Z,56.3
2023-12-04T10:22:13.659Z,64.5
2023-12-04T10:42:13.660Z,66
2023-12-04T11:02:13.706Z,64
2023-12-04T11:22:13.578Z,61.5
2023-12-04T11:42:13.587Z,62.3
2023-12-04T12:22:13.504Z,63.3
2023-12-04T12:42:13.544Z,66.8
2023-12-04T13:02:13.561Z,70.3
2023-12-04T13:22:13.537Z,74.6
2023-12-04T15:42:13.276Z,87.8
2023-12-04T16:02:13.229Z,89
2023-12-04T17:02:13.217Z,87.9
2023-12-04T17:22:13.136Z,90
2023-12-04T17:42:13.095Z,92.1
2023-12-04T18:02:13.070Z,92
2023-12-04T18:22:13.039Z,94.2
2023-12-04T18:42:13.038Z,95.5
2023-12-04T20:02:12.936Z,97.7
2023-12-04T20:22:12.905Z,97.8
2023-12-04T20:42:12.974Z,98.3
2023-12-04T21:02:12.843Z,98.7
2023-12-04T21:22:12.807Z,98.9
2023-12-04T21:42:12.811Z,99
2023-12-04T22:02:12.788Z,99
